Time;durP1;ratioP1;P1;durP2;ratioP2;P2;SDS_P1;SDS_P2;PMS_P1;PMS_P2;Temp;Humidity;BMP_temperature;BMP_pressure;BME280_temperature;BME280_humidity;BME280_pressure;Samples;Min_cycle;Max_cycle;Signal;HPM_P1;HPM_P2
2022/04/05 00:02:21;;;;;;;15.00;10.18;;;;;;;3.40;83.93;98694.78;1782234;80;25984;-76
2022/04/05 00:04:48;;;;;;;11.95;9.18;;;;;;;3.39;83.44;98697.13;1784874;80;25751;-77
2022/04/05 00:07:14;;;;;;;12.75;9.38;;;;;;;3.40;84.21;98678.11;1784785;78;28244;-77
2022/04/05 00:09:41;;;;;;;11.95;9.30;;;;;;;3.37;84.45;98681.95;1762699;80;26548;-77
2022/04/05 00:12:08;;;;;;;11.15;9.03;;;;;;;3.38;83.69;98682.24;1754151;80;25721;-77
2022/04/05 00:14:34;;;;;;;9.13;8.05;;;;;;;3.37;84.71;98676.66;1773292;79;25904;-77
2022/04/05 00:17:02;;;;;;;10.30;9.13;;;;;;;3.37;84.74;98669.20;1758857;80;25747;-77
2022/04/05 00:19:31;;;;;;;10.30;8.03;;;;;;;3.36;85.18;98679.49;1775013;80;27447;-77
2022/04/05 00:21:57;;;;;;;9.18;8.28;;;;;;;3.33;85.50;98672.75;1784330;80;25807;-77
2022/04/05 00:24:24;;;;;;;9.28;8.35;;;;;;;3.32;85.90;98667.13;1758363;80;25855;-77
2022/04/05 00:26:50;;;;;;;9.93;8.88;;;;;;;3.29;86.44;98656.11;1784950;80;26276;-76
2022/04/05 00:29:16;;;;;;;10.32;8.58;;;;;;;3.28;85.94;98657.92;1784745;80;25790;-77
2022/04/05 00:31:42;;;;;;;9.58;8.58;;;;;;;3.26;86.91;98659.94;1776948;80;27447;-77
2022/04/05 00:34:08;;;;;;;10.32;9.18;;;;;;;3.26;86.36;98651.17;1734275;81;26370;-77
2022/04/05 00:36:35;;;;;;;10.35;7.25;;;;;;;3.25;86.09;98648.23;1727982;81;25815;-78
2022/04/05 00:39:01;;;;;;;10.80;8.95;;;;;;;3.24;87.62;98647.90;1734508;81;26323;-78
2022/04/05 00:41:27;;;;;;;10.20;9.10;;;;;;;3.23;86.83;98640.45;1768354;80;25723;-77
2022/04/05 00:43:53;;;;;;;9.83;8.75;;;;;;;3.24;87.42;98623.59;1784445;79;27591;-78
2022/04/05 00:46:20;;;;;;;9.45;7.90;;;;;;;3.26;86.82;98640.59;1785100;80;25973;-77
2022/04/05 00:48:50;;;;;;;9.60;8.58;;;;;;;3.27;86.40;98632.48;1785499;80;25819;-77
2022/04/05 00:51:19;;;;;;;8.08;7.30;;;;;;;3.27;87.03;98632.48;1744667;80;25795;-76
2022/04/05 00:53:48;;;;;;;8.38;7.25;;;;;;;3.28;87.51;98624.84;1775414;80;25488;-77
2022/04/05 00:56:16;;;;;;;9.53;7.87;;;;;;;3.28;87.48;98620.88;1766298;80;27447;-76
2022/04/05 00:58:49;;;;;;;9.98;8.98;;;;;;;3.27;88.22;98615.29;1754391;80;25913;-77
2022/04/05 01:01:18;;;;;;;9.43;8.53;;;;;;;3.27;87.24;98629.84;1766579;80;26492;-77
2022/04/05 01:03:48;;;;;;;9.75;8.65;;;;;;;3.25;87.99;98621.25;1784909;80;25894;-77
2022/04/05 01:06:21;;;;;;;9.83;8.70;;;;;;;3.25;87.95;98617.80;1780715;80;25834;-78
2022/04/05 01:08:47;;;;;;;9.40;8.50;;;;;;;3.22;88.38;98619.49;1750589;81;28326;-77
2022/04/05 01:11:13;;;;;;;10.20;7.60;;;;;;;3.19;88.38;98620.68;1750845;81;25915;-77
2022/04/05 01:13:40;;;;;;;9.35;7.95;;;;;;;3.17;88.80;98627.16;1775356;80;26536;-77
2022/04/05 01:16:07;;;;;;;9.35;8.38;;;;;;;3.16;88.41;98619.75;1781607;80;25471;-77
2022/04/05 01:18:34;;;;;;;10.53;8.73;;;;;;;3.18;88.90;98619.06;1754625;80;26488;-77
2022/04/05 01:21:01;;;;;;;9.83;8.65;;;;;;;3.17;88.84;98622.70;1738997;81;27448;-77
2022/04/05 01:23:27;;;;;;;8.95;8.00;;;;;;;3.20;88.69;98618.36;1784505;80;26284;-76
2022/04/05 01:25:53;;;;;;;11.43;10.30;;;;;;;3.20;88.85;98606.46;1785363;80;26224;-77
2022/04/05 01:28:20;;;;;;;10.58;9.50;;;;;;;3.22;88.17;98610.23;1784904;80;26254;-77
2022/04/05 01:30:46;;;;;;;12.40;10.60;;;;;;;3.23;88.59;98614.00;1774187;80;25821;-77
2022/04/05 01:33:13;;;;;;;11.08;9.78;;;;;;;3.25;88.60;98606.70;1780973;80;26921;-77
2022/04/05 01:35:40;;;;;;;10.80;9.70;;;;;;;3.28;89.21;98608.15;1785099;80;25730;-77
2022/04/05 01:38:07;;;;;;;9.60;8.33;;;;;;;3.28;88.63;98602.36;1784698;80;25294;-78
2022/04/05 01:40:34;;;;;;;12.30;11.00;;;;;;;3.30;88.84;98601.67;1784571;80;25785;-77
2022/04/05 01:43:00;;;;;;;14.65;11.73;;;;;;;3.33;88.62;98601.80;1784465;78;26349;-77
2022/04/05 01:45:26;;;;;;;13.72;12.30;;;;;;;3.36;88.47;98588.20;1785698;80;27435;-77
2022/04/05 01:47:53;;;;;;;15.08;12.37;;;;;;;3.38;88.71;98591.48;1785039;80;25778;-77
2022/04/05 01:50:19;;;;;;;13.30;11.90;;;;;;;3.41;88.85;98581.81;1784698;80;25698;-77
2022/04/05 01:52:46;;;;;;;13.58;11.68;;;;;;;3.43;88.90;98578.47;1784202;80;25758;-77
2022/04/05 01:55:12;;;;;;;14.00;12.53;;;;;;;3.46;88.78;98580.75;1784758;80;26180;-77
2022/04/05 01:57:38;;;;;;;13.28;11.22;;;;;;;3.50;88.47;98576.70;1785619;80;27419;-77
2022/04/05 02:00:14;;;;;;;14.00;12.00;;;;;;;3.51;89.16;98571.22;1784622;80;25910;-77
2022/04/05 02:02:42;;;;;;;13.72;11.22;;;;;;;3.53;88.88;98570.52;1784863;80;25727;-77
2022/04/05 02:05:10;;;;;;;14.50;11.55;;;;;;;3.54;89.57;98562.08;1785025;80;25841;-77
2022/04/05 02:07:37;;;;;;;14.33;11.25;;;;;;;3.57;89.06;98555.89;1785019;80;25813;-77
2022/04/05 02:10:05;;;;;;;11.00;9.83;;;;;;;3.60;89.38;98556.02;1785064;80;27425;-78
2022/04/05 02:12:33;;;;;;;12.50;11.20;;;;;;;3.62;89.74;98552.67;1772305;80;25947;-77
2022/04/05 02:15:01;;;;;;;12.68;11.35;;;;;;;3.64;89.63;98546.17;1780231;80;25821;-77
2022/04/05 02:17:29;;;;;;;16.27;12.40;;;;;;;3.65;89.94;98551.80;1770550;80;26344;-77
2022/04/05 02:19:57;;;;;;;12.50;10.93;;;;;;;3.68;90.02;98543.45;1782596;80;25285;-77
2022/04/05 02:22:24;;;;;;;12.70;11.40;;;;;;;3.71;89.81;98548.88;1768849;80;28260;-77
2022/04/05 02:24:52;;;;;;;13.35;10.60;;;;;;;3.72;89.77;98553.97;1783260;80;25715;-77
2022/04/05 02:27:19;;;;;;;12.78;11.15;;;;;;;3.73;90.44;98543.70;1783253;80;25827;-77
2022/04/05 02:29:46;;;;;;;12.68;10.58;;;;;;;3.75;89.80;98555.42;1783233;80;25867;-77
2022/04/05 02:32:14;;;;;;;12.13;10.85;;;;;;;3.79;90.31;98544.25;1781686;80;25810;-77
2022/04/05 02:34:41;;;;;;;13.90;12.20;;;;;;;3.83;90.26;98543.34;1760497;80;28323;-77
2022/04/05 02:37:08;;;;;;;12.47;11.18;;;;;;;3.87;89.94;98545.95;1770616;80;25727;-77
2022/04/05 02:39:35;;;;;;;10.72;9.13;;;;;;;3.89;89.71;98539.41;1783091;80;26441;-78
2022/04/05 02:42:03;;;;;;;13.88;11.43;;;;;;;3.93;90.63;98537.72;1783305;80;26631;-77
2022/04/05 02:44:33;;;;;;;12.68;11.33;;;;;;;3.94;90.34;98540.16;1783030;80;26173;-77
2022/04/05 02:47:02;;;;;;;12.68;11.38;;;;;;;3.95;90.29;98535.69;1783605;80;27439;-78
2022/04/05 02:49:30;;;;;;;12.82;11.40;;;;;;;3.96;90.30;98526.75;1782920;80;25846;-77
2022/04/05 02:51:56;;;;;;;12.70;11.40;;;;;;;3.98;90.71;98527.37;1751250;80;25990;-77
2022/04/05 02:54:24;;;;;;;13.48;11.68;;;;;;;3.98;90.58;98526.84;1751813;80;25820;-77
2022/04/05 02:56:53;;;;;;;14.85;12.05;;;;;;;4.02;90.47;98529.94;1753069;80;25839;-77
2022/04/05 02:59:19;;;;;;;14.20;12.50;;;;;;;4.04;90.17;98520.78;1779649;80;27450;-77
2022/04/05 03:01:46;;;;;;;13.75;12.03;;;;;;;4.05;90.29;98523.73;1763311;80;25796;-78
2022/04/05 03:04:14;;;;;;;16.02;12.85;;;;;;;4.08;90.66;98523.34;1764045;80;25825;-76
2022/04/05 03:06:40;;;;;;;16.95;13.18;;;;;;;4.11;90.61;98528.73;1761149;80;26085;-77
2022/04/05 03:09:07;;;;;;;17.27;14.53;;;;;;;4.11;90.80;98525.59;1758467;80;26578;-76
2022/04/05 03:11:34;;;;;;;18.25;13.35;;;;;;;4.12;90.88;98521.12;1777471;80;27428;-76
2022/04/05 03:14:01;;;;;;;18.90;15.23;;;;;;;4.13;90.91;98522.77;1753872;81;25847;-76
2022/04/05 03:16:28;;;;;;;17.80;14.28;;;;;;;4.14;90.97;98526.53;1784528;79;25707;-77
2022/04/05 03:18:55;;;;;;;15.60;13.28;;;;;;;4.17;90.36;98518.70;1767635;81;26625;-77
2022/04/05 03:21:22;;;;;;;16.65;14.80;;;;;;;4.19;90.42;98517.47;1782984;80;25938;-76
2022/04/05 03:23:48;;;;;;;17.15;15.18;;;;;;;4.20;90.29;98512.50;1740570;81;27516;-78
2022/04/05 03:26:15;;;;;;;15.68;13.08;;;;;;;4.22;90.14;98511.79;1760829;81;26284;-77
2022/04/05 03:28:42;;;;;;;17.07;15.20;;;;;;;4.24;90.51;98526.16;1761510;81;25759;-77
2022/04/05 03:31:09;;;;;;;17.25;13.60;;;;;;;4.26;90.38;98509.55;1761225;81;25751;-78
2022/04/05 03:33:35;;;;;;;16.82;15.03;;;;;;;4.28;90.18;98516.30;1748445;81;26131;-78
2022/04/05 03:36:04;;;;;;;21.42;14.20;;;;;;;4.31;90.25;98520.39;1761539;81;27462;-79
2022/04/05 03:38:32;;;;;;;16.02;13.48;;;;;;;4.33;90.29;98518.36;1751334;81;25815;-77
2022/04/05 03:40:59;;;;;;;15.75;13.28;;;;;;;4.34;90.19;98508.88;1761909;81;25787;-78
2022/04/05 03:43:25;;;;;;;16.50;14.83;;;;;;;4.34;90.90;98509.41;1750312;81;26515;-77
2022/04/05 03:45:53;;;;;;;16.57;14.75;;;;;;;4.34;90.37;98512.85;1761120;81;26101;-78
2022/04/05 03:48:20;;;;;;;18.00;15.72;;;;;;;4.36;90.25;98504.72;1745637;81;27451;-78
2022/04/05 03:50:47;;;;;;;14.73;12.88;;;;;;;4.38;89.83;98507.99;1731316;81;26087;-77
2022/04/05 03:53:14;;;;;;;14.80;11.93;;;;;;;4.39;90.32;98510.44;1730936;81;25634;-78
2022/04/05 03:55:42;;;;;;;14.70;13.15;;;;;;;4.42;90.08;98510.55;1719131;82;25554;-77
2022/04/05 03:58:12;;;;;;;15.85;14.13;;;;;;;4.45;89.88;98510.14;1731906;81;25934;-77
2022/04/05 04:00:39;;;;;;;16.57;14.83;;;;;;;4.46;89.50;98517.91;1737611;81;27444;-77
2022/04/05 04:03:07;;;;;;;16.45;13.80;;;;;;;4.48;89.70;98525.66;1754392;81;25814;-75
2022/04/05 04:05:33;;;;;;;15.90;14.10;;;;;;;4.51;89.37;98526.06;1760593;81;26158;-77
2022/04/05 04:08:00;;;;;;;17.25;15.45;;;;;;;4.53;89.80;98525.36;1760612;81;25791;-76
2022/04/05 04:10:27;;;;;;;15.83;14.03;;;;;;;4.55;88.92;98526.52;1761461;81;25988;-77
2022/04/05 04:12:55;;;;;;;17.10;13.48;;;;;;;4.57;88.62;98517.84;1760532;81;28390;-77
2022/04/05 04:15:23;;;;;;;18.02;15.72;;;;;;;4.57;88.83;98522.65;1761070;81;25774;-76
2022/04/05 04:17:50;;;;;;;11.53;10.30;;;;;;;4.59;88.57;98521.12;1751677;81;26437;-76
2022/04/05 04:20:16;;;;;;;17.55;15.65;;;;;;;4.63;88.78;98515.22;1761164;81;25784;-77
2022/04/05 04:22:43;;;;;;;13.55;12.13;;;;;;;4.66;88.54;98516.13;1753900;81;25908;-76
2022/04/05 04:25:10;;;;;;;16.60;14.80;;;;;;;4.69;88.57;98518.39;1757742;81;27443;-77
2022/04/05 04:27:36;;;;;;;16.93;15.10;;;;;;;4.74;87.86;98526.25;1742615;81;25913;-76
2022/04/05 04:30:04;;;;;;;16.40;14.05;;;;;;;4.77;88.02;98527.98;1746680;81;25769;-77
2022/04/05 04:32:30;;;;;;;15.15;13.55;;;;;;;4.79;87.84;98535.77;1744665;81;25880;-76
2022/04/05 04:34:56;;;;;;;15.43;13.83;;;;;;;4.80;87.95;98526.27;1748041;81;26235;-76
2022/04/05 04:37:22;;;;;;;17.05;13.80;;;;;;;4.80;87.84;98527.59;1745005;81;28006;-77
2022/04/05 04:39:50;;;;;;;16.85;14.03;;;;;;;4.81;87.61;98523.13;1748522;81;25728;-76
2022/04/05 04:42:16;;;;;;;14.98;13.40;;;;;;;4.79;87.78;98531.79;1742012;81;25795;-77
2022/04/05 04:44:42;;;;;;;16.87;14.60;;;;;;;4.79;87.55;98533.11;1747962;81;25796;-77
2022/04/05 04:47:09;;;;;;;15.98;13.72;;;;;;;4.80;87.40;98550.14;1748277;81;26354;-77
2022/04/05 04:49:35;;;;;;;18.67;16.67;;;;;;;4.83;87.37;98550.26;1745072;81;27406;-77
2022/04/05 04:52:03;;;;;;;16.07;14.40;;;;;;;4.85;87.66;98545.56;1742662;81;25854;-77
2022/04/05 04:54:30;;;;;;;16.25;14.55;;;;;;;4.86;87.59;98546.69;1743095;81;25802;-77
2022/04/05 04:56:56;;;;;;;17.07;14.47;;;;;;;4.89;87.83;98551.60;1754873;80;26314;-76
2022/04/05 04:59:22;;;;;;;16.00;14.23;;;;;;;4.95;87.27;98552.63;1731710;81;25874;-76
2022/04/05 05:01:48;;;;;;;16.07;13.95;;;;;;;4.97;87.28;98554.06;1752828;81;28249;-76
2022/04/05 05:04:14;;;;;;;17.55;14.53;;;;;;;5.00;86.99;98559.48;1758809;81;25327;-77
2022/04/05 05:06:41;;;;;;;16.73;14.63;;;;;;;5.02;87.28;98557.45;1739070;81;25837;-77
2022/04/05 05:09:07;;;;;;;15.48;13.53;;;;;;;5.07;87.35;98553.69;1761351;81;25836;-77
2022/04/05 05:11:33;;;;;;;18.67;14.60;;;;;;;5.09;86.94;98552.45;1749537;81;26007;-77
2022/04/05 05:14:00;;;;;;;15.78;14.10;;;;;;;5.14;86.78;98555.33;1747668;81;28245;-77
2022/04/05 05:16:26;;;;;;;14.28;12.65;;;;;;;5.21;86.73;98558.81;1757257;81;25747;-76
2022/04/05 05:18:54;;;;;;;16.37;13.48;;;;;;;5.26;86.76;98558.21;1713700;81;25968;-77
2022/04/05 05:21:21;;;;;;;19.17;14.60;;;;;;;5.27;86.47;98561.98;1706098;82;26290;-77
2022/04/05 05:23:47;;;;;;;15.85;13.25;;;;;;;5.29;86.26;98554.63;1743469;81;25806;-76
2022/04/05 05:26:14;;;;;;;16.45;14.73;;;;;;;5.30;86.44;98560.77;1710448;82;27477;-77
2022/04/05 05:28:41;;;;;;;11.25;9.98;;;;;;;5.28;86.78;98570.77;1742343;81;25855;-76
2022/04/05 05:31:07;;;;;;;11.00;9.90;;;;;;;5.23;87.33;98571.88;1711388;82;25858;-77
2022/04/05 05:33:33;;;;;;;10.18;8.73;;;;;;;5.13;86.97;98573.58;1726069;82;25839;-77
2022/04/05 05:35:59;;;;;;;9.43;7.55;;;;;;;5.01;87.02;98576.52;1712038;82;25744;-77
2022/04/05 05:38:26;;;;;;;8.73;6.67;;;;;;;4.90;86.70;98577.09;1734951;82;27505;-77
2022/04/05 05:40:52;;;;;;;9.10;6.90;;;;;;;4.79;87.92;98577.67;1719392;82;25792;-77
2022/04/05 05:43:18;;;;;;;9.23;6.40;;;;;;;4.68;88.41;98584.89;1704999;83;26603;-77
2022/04/05 05:45:45;;;;;;;9.08;6.45;;;;;;;4.55;89.73;98598.92;1722259;81;26304;-76
2022/04/05 05:48:11;;;;;;;7.12;6.17;;;;;;;4.44;89.63;98586.22;1706951;82;25606;-76
2022/04/05 05:50:37;;;;;;;7.22;6.28;;;;;;;4.33;90.14;98600.02;1726160;82;28257;-77
2022/04/05 05:53:04;;;;;;;7.85;7.05;;;;;;;4.29;90.27;98606.72;1751236;81;26314;-77
2022/04/05 05:55:31;;;;;;;9.30;7.03;;;;;;;4.27;91.10;98602.12;1706786;81;25906;-76
2022/04/05 05:57:57;;;;;;;10.25;6.75;;;;;;;4.27;91.12;98601.30;1729945;81;26024;-77
2022/04/05 06:00:24;;;;;;;9.63;8.35;;;;;;;4.30;91.11;98603.05;1735480;82;26092;-77
2022/04/05 06:02:58;;;;;;;9.88;8.08;;;;;;;4.35;91.41;98607.77;1735446;82;26902;-77
2022/04/05 06:05:25;;;;;;;11.88;8.70;;;;;;;4.40;91.63;98606.68;1735615;82;25712;-77
2022/04/05 06:07:51;;;;;;;8.70;7.25;;;;;;;4.47;92.16;98608.87;1736050;81;25513;-77
2022/04/05 06:10:19;;;;;;;9.73;8.78;;;;;;;4.53;92.15;98618.15;1735840;82;26809;-77
2022/04/05 06:12:48;;;;;;;10.05;9.05;;;;;;;4.59;92.16;98612.09;1736108;82;26023;-77
2022/04/05 06:15:17;;;;;;;12.30;11.00;;;;;;;4.66;92.29;98615.56;1735976;82;28226;-78
2022/04/05 06:17:48;;;;;;;11.68;10.35;;;;;;;4.73;92.09;98614.27;1770965;80;25975;-77
2022/04/05 06:20:16;;;;;;;;;;;;;;;4.80;91.84;98624.91;1787601;80;25810;-77
2022/04/05 06:22:51;;;;;;;14.28;10.72;;;;;;;4.87;91.77;98628.41;1784992;80;25790;-77
2022/04/05 06:25:26;;;;;;;13.28;11.05;;;;;;;4.94;92.06;98619.98;1785202;80;25736;-77
2022/04/05 06:27:54;;;;;;;14.80;13.05;;;;;;;5.04;92.52;98621.24;1775175;80;27528;-77
2022/04/05 06:30:21;;;;;;;14.05;10.45;;;;;;;5.14;92.16;98609.73;1775859;79;26359;-77
2022/04/05 06:32:47;;;;;;;15.53;13.60;;;;;;;5.19;92.12;98612.61;1781582;79;25857;-76
2022/04/05 06:35:15;;;;;;;11.03;9.85;;;;;;;5.25;91.39;98619.77;1747673;80;25840;-76
2022/04/05 06:37:44;;;;;;;10.45;9.35;;;;;;;5.36;91.41;98614.37;1751092;81;25964;-76
2022/04/05 06:40:14;;;;;;;11.28;8.85;;;;;;;5.46;90.89;98616.11;1753130;81;28389;-77
2022/04/05 06:42:44;;;;;;;8.83;7.92;;;;;;;5.56;89.27;98626.35;1765895;81;26392;-77
2022/04/05 06:45:17;;;;;;;8.48;7.50;;;;;;;5.61;88.11;98620.73;1765682;81;25831;-77
2022/04/05 06:47:43;;;;;;;8.50;7.60;;;;;;;5.75;87.93;98617.58;1755583;81;25900;-76
2022/04/05 06:50:12;;;;;;;11.45;7.35;;;;;;;5.91;87.95;98624.66;1765873;81;26050;-77
2022/04/05 06:52:40;;;;;;;7.47;6.67;;;;;;;6.01;87.69;98625.55;1765770;81;27453;-77
2022/04/05 06:55:09;;;;;;;9.38;7.00;;;;;;;6.10;86.50;98629.14;1760605;81;26472;-76
2022/04/05 06:57:36;;;;;;;7.28;5.50;;;;;;;6.15;86.43;98636.00;1717943;82;26529;-77
2022/04/05 07:00:06;;;;;;;7.67;5.80;;;;;;;6.14;82.62;98625.05;1736241;81;25833;-77
2022/04/05 07:02:33;;;;;;;5.72;4.37;;;;;;;6.10;83.25;98638.95;1760100;81;25875;-76
2022/04/05 07:04:59;;;;;;;6.00;4.40;;;;;;;6.05;81.93;98650.19;1766316;81;26940;-77
2022/04/05 07:07:25;;;;;;;5.67;4.33;;;;;;;5.99;81.32;98654.18;1761560;80;25806;-76
2022/04/05 07:09:51;;;;;;;4.78;4.28;;;;;;;5.90;80.48;98662.07;1765744;81;25805;-76
2022/04/05 07:12:17;;;;;;;4.67;4.28;;;;;;;5.81;81.45;98653.95;1765515;81;25737;-76
2022/04/05 07:14:44;;;;;;;5.95;4.45;;;;;;;5.63;80.76;98669.15;1766393;81;25869;-76
2022/04/05 07:17:10;;;;;;;6.42;4.10;;;;;;;5.48;81.13;98687.92;1765598;81;27455;-77
2022/04/05 07:19:36;;;;;;;4.20;3.72;;;;;;;5.33;81.46;98675.81;1746954;81;25830;-77
2022/04/05 07:22:03;;;;;;;7.05;4.75;;;;;;;5.24;81.83;98679.66;1735695;81;25796;-76
2022/04/05 07:24:30;;;;;;;8.95;5.05;;;;;;;5.12;81.67;98674.63;1753815;81;25837;-77
2022/04/05 07:26:56;;;;;;;13.13;8.43;;;;;;;5.06;82.06;98680.73;1766557;81;25931;-77
2022/04/05 07:29:22;;;;;;;10.18;6.50;;;;;;;5.03;82.74;98691.23;1765899;81;27515;-77
2022/04/05 07:31:49;;;;;;;7.78;5.70;;;;;;;5.03;82.79;98683.27;1765431;81;25938;-76
2022/04/05 07:34:15;;;;;;;8.88;5.30;;;;;;;5.08;82.88;98690.14;1765647;81;25727;-77
2022/04/05 07:36:41;;;;;;;11.73;7.62;;;;;;;5.14;82.85;98696.48;1766133;81;25844;-76
2022/04/05 07:39:07;;;;;;;9.33;6.12;;;;;;;5.29;83.13;98683.37;1766159;81;25939;-77
2022/04/05 07:41:33;;;;;;;7.00;5.45;;;;;;;5.52;83.73;98680.36;1766039;81;28074;-77
2022/04/05 07:44:00;;;;;;;7.10;4.30;;;;;;;5.69;83.03;98689.59;1765861;81;26449;-76
2022/04/05 07:46:26;;;;;;;6.65;3.75;;;;;;;5.79;81.10;98691.36;1765677;81;26498;-76
2022/04/05 07:48:52;;;;;;;7.58;4.92;;;;;;;5.83;78.80;98693.91;1765925;81;26446;-76
2022/04/05 07:51:18;;;;;;;4.75;3.42;;;;;;;5.86;78.25;98700.70;1765388;81;26640;-77
2022/04/05 07:53:45;;;;;;;7.55;3.83;;;;;;;5.89;76.91;98692.30;1743020;81;27535;-77
2022/04/05 07:56:13;;;;;;;8.53;4.10;;;;;;;5.93;76.96;98698.84;1763438;81;25906;-76
2022/04/05 07:58:42;;;;;;;6.60;3.05;;;;;;;5.98;77.35;98705.70;1766270;81;25760;-77
2022/04/05 08:01:10;;;;;;;6.10;3.30;;;;;;;6.03;75.17;98696.63;1765589;81;26499;-76
2022/04/05 08:03:38;;;;;;;3.22;2.47;;;;;;;6.10;75.95;98708.88;1765588;81;25753;-77
2022/04/05 08:06:04;;;;;;;8.05;3.08;;;;;;;6.19;75.11;98724.11;1765699;81;27463;-77
2022/04/05 08:08:31;;;;;;;5.47;2.10;;;;;;;6.23;74.51;98718.69;1766015;81;26444;-77
2022/04/05 08:10:58;;;;;;;6.78;1.65;;;;;;;6.23;71.98;98729.33;1742692;81;25788;-77
2022/04/05 08:13:27;;;;;;;4.03;1.72;;;;;;;6.23;71.74;98722.17;1752024;81;26307;-77
2022/04/05 08:15:54;;;;;;;4.78;2.00;;;;;;;6.34;71.69;98718.59;1758038;80;25910;-77
2022/04/05 08:18:21;;;;;;;7.17;2.27;;;;;;;6.37;69.93;98732.31;1749860;81;28046;-77
2022/04/05 08:20:48;;;;;;;5.70;2.17;;;;;;;6.39;69.70;98726.78;1753945;81;25877;-77
2022/04/05 08:23:14;;;;;;;11.83;2.42;;;;;;;6.40;70.45;98738.53;1748749;80;25848;-77
2022/04/05 08:25:41;;;;;;;10.72;2.22;;;;;;;6.36;68.45;98733.32;1767424;80;26238;-77
2022/04/05 08:28:07;;;;;;;7.60;2.75;;;;;;;6.28;68.65;98743.34;1752537;80;25793;-77
2022/04/05 08:30:33;;;;;;;6.10;2.10;;;;;;;6.31;69.20;98736.30;1767969;80;28291;-77
2022/04/05 08:33:00;;;;;;;7.92;2.15;;;;;;;6.39;68.57;98735.58;1755321;80;25737;-77
2022/04/05 08:35:26;;;;;;;5.83;2.50;;;;;;;6.51;70.11;98737.91;1747542;81;25739;-77
2022/04/05 08:37:55;;;;;;;6.45;3.05;;;;;;;6.65;70.28;98744.05;1757623;81;26142;-77
2022/04/05 08:40:24;;;;;;;5.58;2.35;;;;;;;6.78;68.76;98750.66;1765391;80;25793;-77
2022/04/05 08:42:54;;;;;;;4.15;2.50;;;;;;;6.91;69.03;98737.33;1770839;80;27462;-77
2022/04/05 08:45:22;;;;;;;4.47;3.12;;;;;;;7.07;69.49;98737.40;1771154;80;26420;-76
2022/04/05 08:47:57;;;;;;;9.93;5.45;;;;;;;7.19;66.81;98749.84;1762493;80;25728;-77
2022/04/05 08:50:32;;;;;;;8.08;3.67;;;;;;;7.26;66.99;98751.98;1768922;80;25934;-77
2022/04/05 08:53:00;;;;;;;10.82;4.12;;;;;;;7.32;66.16;98751.64;1777931;80;26122;-77
2022/04/05 08:55:28;;;;;;;8.70;4.10;;;;;;;7.34;65.34;98741.09;1767327;80;27475;-77
2022/04/05 08:57:56;;;;;;;7.55;3.20;;;;;;;7.36;64.29;98763.51;1772521;80;25794;-77
2022/04/05 09:00:23;;;;;;;7.80;3.05;;;;;;;7.44;64.16;98750.77;1761236;80;25318;-76
2022/04/05 09:02:56;;;;;;;6.83;3.52;;;;;;;7.42;63.17;98744.84;1771792;80;25786;-77
2022/04/05 09:05:43;;;;;;;8.48;3.60;;;;;;;7.41;64.09;98751.21;1753091;80;25988;-77
2022/04/05 09:08:24;;;;;;;46.10;19.67;;;;;;;7.39;65.55;98760.44;1770082;80;28329;-77
2022/04/05 09:11:10;;;;;;;21.35;9.30;;;;;;;7.36;63.45;98758.19;1771832;80;26493;-77
2022/04/05 09:13:36;;;;;;;7.50;3.35;;;;;;;7.46;62.68;98765.23;1757247;80;26371;-77
2022/04/05 09:16:08;;;;;;;5.75;2.33;;;;;;;7.54;62.85;98774.31;1762652;80;25972;-77
2022/04/05 09:18:40;;;;;;;5.92;2.20;;;;;;;7.55;62.85;98767.94;1747704;80;25340;-77
2022/04/05 09:21:09;;;;;;;8.13;2.20;;;;;;;7.54;61.24;98779.64;1751993;81;28029;-77
2022/04/05 09:23:41;;;;;;;6.58;2.60;;;;;;;7.51;59.21;98794.70;1752393;80;26498;-77
2022/04/05 09:26:14;;;;;;;5.25;2.58;;;;;;;7.43;58.82;98801.60;1756386;80;25793;-77
2022/04/05 09:28:47;;;;;;;6.40;3.12;;;;;;;7.32;57.68;98795.08;1739491;82;26229;-76
2022/04/05 09:31:17;;;;;;;6.67;3.50;;;;;;;7.29;58.68;98795.48;1740558;81;25927;-77
2022/04/05 09:34:05;;;;;;;8.28;2.27;;;;;;;7.28;58.25;98793.05;1753079;81;28166;-77
2022/04/05 09:36:39;;;;;;;6.33;1.75;;;;;;;7.26;58.65;98816.41;1748097;81;25808;-77
2022/04/05 09:39:20;;;;;;;4.80;2.92;;;;;;;7.26;58.29;98809.75;1724559;81;25733;-76
2022/04/05 09:41:52;;;;;;;5.67;3.10;;;;;;;7.26;56.33;98824.39;1749758;80;25841;-77
2022/04/05 09:44:33;;;;;;;10.55;4.03;;;;;;;7.26;57.41;98813.23;1716928;81;25763;-77
2022/04/05 09:47:17;;;;;;;7.10;2.90;;;;;;;7.33;57.53;98817.21;1753845;81;27442;-77
2022/04/05 09:49:48;;;;;;;11.30;2.37;;;;;;;7.39;57.84;98815.04;1724158;81;26463;-77
2022/04/05 09:52:32;;;;;;;8.55;2.60;;;;;;;7.44;58.09;98821.36;1738505;81;26408;-77
2022/04/05 09:55:15;;;;;;;6.87;2.42;;;;;;;7.45;57.98;98824.34;1740762;81;25963;-77
2022/04/05 09:57:43;;;;;;;5.58;2.67;;;;;;;7.44;57.66;98828.56;1746255;81;25733;-77
2022/04/05 10:00:19;;;;;;;6.25;2.87;;;;;;;7.40;57.69;98823.34;1753433;81;28280;-76
2022/04/05 10:03:03;;;;;;;7.15;2.80;;;;;;;7.46;58.66;98821.17;1744183;81;25699;-76
2022/04/05 10:05:32;;;;;;;19.42;7.03;;;;;;;7.65;59.46;98826.95;1729248;81;25765;-77
2022/04/05 10:08:00;;;;;;;10.72;3.70;;;;;;;7.76;58.76;98828.42;1718878;81;26406;-77
2022/04/05 10:10:26;;;;;;;36.50;16.75;;;;;;;7.78;57.32;98834.89;1729606;81;25825;-77
2022/04/05 10:12:53;;;;;;;25.27;11.88;;;;;;;7.74;56.29;98837.67;1753545;81;27449;-77
2022/04/05 10:15:21;;;;;;;19.25;8.10;;;;;;;7.71;57.77;98842.08;1743144;81;25721;-77
2022/04/05 10:17:53;;;;;;;22.20;10.65;;;;;;;7.85;57.25;98840.98;1746404;80;25670;-76
2022/04/05 10:20:21;;;;;;;12.50;6.50;;;;;;;7.87;54.47;98838.92;1753617;81;26427;-77
2022/04/05 10:22:56;;;;;;;9.40;2.85;;;;;;;7.76;54.88;98836.41;1753479;81;26171;-76
2022/04/05 10:25:23;;;;;;;6.40;2.05;;;;;;;7.68;55.99;98854.48;1753770;81;27475;-77
2022/04/05 10:27:50;;;;;;;6.72;2.17;;;;;;;7.70;56.76;98862.58;1753884;81;25764;-77
2022/04/05 10:30:31;;;;;;;14.03;7.80;;;;;;;7.84;55.98;98867.36;1753723;81;25871;-77
2022/04/05 10:33:08;;;;;;;6.55;3.05;;;;;;;7.92;53.25;98851.12;1753365;81;25804;-78
2022/04/05 10:35:40;;;;;;;7.35;3.30;;;;;;;8.06;55.13;98863.34;1752317;81;25856;-78
2022/04/05 10:38:18;;;;;;;8.55;2.62;;;;;;;8.21;55.06;98860.42;1740756;80;27470;-76
2022/04/05 10:41:12;;;;;;;10.80;4.40;;;;;;;8.39;54.26;98869.88;1753883;81;25864;-76
2022/04/05 10:43:39;;;;;;;13.03;3.70;;;;;;;8.49;52.13;98869.70;1723843;81;25954;-77
2022/04/05 10:46:06;;;;;;;7.53;2.37;;;;;;;8.53;52.56;98874.11;1734409;81;26569;-77
2022/04/05 10:48:33;;;;;;;8.40;2.62;;;;;;;8.53;54.18;98878.11;1741752;81;26034;-77
2022/04/05 10:51:07;;;;;;;5.28;1.75;;;;;;;8.47;53.24;98886.44;1753764;81;27434;-77
2022/04/05 10:56:30;;;;;;;6.90;1.75;;;;;;;8.37;51.66;98894.61;1740840;81;25941;-77
2022/04/05 10:59:16;;;;;;;7.97;2.02;;;;;;;8.13;50.32;98888.14;1747660;81;26394;-77
2022/04/05 11:01:45;;;;;;;8.63;2.05;;;;;;;8.00;51.59;98914.06;1736267;81;25739;-77
2022/04/05 11:04:22;;;;;;;6.87;2.60;;;;;;;7.90;52.19;98901.67;1749924;81;28258;-76
2022/04/05 11:07:09;;;;;;;3.77;1.40;;;;;;;7.81;52.31;98905.08;1752151;81;25952;-77
2022/04/05 11:09:52;;;;;;;9.00;2.65;;;;;;;7.79;53.32;98917.80;1753698;81;25717;-77
2022/04/05 11:12:30;;;;;;;9.25;3.22;;;;;;;7.77;51.63;98904.70;1750359;81;25913;-77
2022/04/05 11:15:05;;;;;;;9.58;3.65;;;;;;;7.80;52.64;98910.13;1724178;81;25769;-77
2022/04/05 11:17:29;;;;;;;9.38;2.20;;;;;;;7.81;53.11;98911.75;1727411;81;27551;-77
2022/04/05 11:19:57;;;;;;;8.63;2.40;;;;;;;7.85;53.51;98916.95;1752515;80;25692;-77
2022/04/05 11:22:37;;;;;;;11.90;2.30;;;;;;;7.92;52.88;98913.77;1712716;82;25849;-77
2022/04/05 11:25:11;;;;;;;10.25;2.55;;;;;;;8.09;54.30;98919.44;1732378;82;26541;-77
2022/04/05 11:27:49;;;;;;;7.00;1.87;;;;;;;8.38;53.72;98909.06;1735819;82;25955;-77
2022/04/05 11:30:27;;;;;;;9.73;2.22;;;;;;;8.61;52.41;98919.72;1735444;82;27489;-77
2022/04/05 11:33:13;;;;;;;7.67;1.98;;;;;;;8.74;51.77;98908.97;1713195;82;26291;-77
2022/04/05 11:35:47;;;;;;;12.18;2.40;;;;;;;8.75;50.79;98911.41;1727398;82;26474;-77
2022/04/05 11:38:29;;;;;;;8.63;3.08;;;;;;;8.76;50.88;98904.23;1715842;81;26540;-77
2022/04/05 11:41:03;;;;;;;4.67;2.85;;;;;;;8.70;49.89;98905.92;1710026;82;25336;-76
2022/04/05 11:43:34;;;;;;;9.35;2.65;;;;;;;8.75;51.18;98921.27;1702600;83;27540;-77
2022/04/05 11:46:09;;;;;;;7.97;2.58;;;;;;;8.89;50.73;98918.31;1751247;81;25723;-76